createdAt,value
2022-08-10T00:01:08.364Z,16.83
2022-08-10T00:03:35.210Z,16.79
2022-08-10T00:06:02.051Z,16.73
2022-08-10T00:08:29.330Z,16.68
2022-08-10T00:10:57.413Z,16.60
2022-08-10T00:13:25.998Z,16.55
2022-08-10T00:15:54.936Z,16.49
2022-08-10T00:18:35.277Z,16.46
2022-08-10T00:21:05.150Z,16.41
2022-08-10T00:23:32.745Z,16.38
2022-08-10T00:25:59.948Z,16.36
2022-08-10T00:28:26.790Z,16.33
2022-08-10T00:30:53.622Z,16.31
2022-08-10T00:33:21.052Z,16.28
2022-08-10T00:35:48.820Z,16.26
2022-08-10T00:38:15.759Z,16.24
2022-08-10T00:40:42.980Z,16.22
2022-08-10T00:43:09.772Z,16.21
2022-08-10T00:45:37.176Z,16.20
2022-08-10T00:48:04.333Z,16.19
2022-08-10T00:50:31.439Z,16.18
2022-08-10T00:52:58.489Z,16.18
2022-08-10T00:55:25.929Z,16.16
2022-08-10T00:57:55.407Z,16.12
2022-08-10T01:00:26.404Z,16.08
2022-08-10T01:02:53.408Z,16.05
2022-08-10T01:05:21.011Z,15.96
2022-08-10T01:08:19.850Z,15.87
2022-08-10T01:12:39.964Z,15.72
2022-08-10T01:14:36.786Z,15.57
2022-08-10T01:17:13.321Z,15.48
2022-08-10T01:19:48.924Z,15.40
2022-08-10T01:22:21.660Z,15.32
2022-08-10T01:24:57.365Z,15.23
2022-08-10T01:27:36.296Z,15.11
2022-08-10T01:30:05.292Z,15.03
2022-08-10T01:32:42.573Z,14.96
2022-08-10T01:35:18.389Z,14.88
2022-08-10T01:38:02.254Z,14.81
2022-08-10T01:40:32.750Z,14.75
2022-08-10T01:43:08.092Z,14.71
2022-08-10T01:45:45.799Z,14.66
2022-08-10T01:48:29.314Z,14.63
2022-08-10T01:51:03.038Z,14.60
2022-08-10T01:53:40.069Z,14.56
2022-08-10T01:56:12.010Z,14.51
2022-08-10T01:58:39.639Z,14.48
2022-08-10T02:01:11.202Z,14.45
2022-08-10T02:04:03.913Z,14.39
2022-08-10T02:06:37.218Z,14.34
2022-08-10T02:09:07.316Z,14.31
2022-08-10T02:12:07.690Z,14.32
2022-08-10T02:14:34.034Z,14.32
2022-08-10T02:17:58.153Z,14.32
2022-08-10T02:20:00.433Z,14.32
2022-08-10T02:22:37.939Z,14.36
2022-08-10T02:25:08.061Z,14.40
2022-08-10T02:27:35.870Z,14.44
2022-08-10T02:30:05.773Z,14.50
2022-08-10T02:32:38.259Z,14.55
2022-08-10T02:35:22.242Z,14.60
2022-08-10T02:37:53.188Z,14.65
2022-08-10T02:45:01.952Z,14.71
2022-08-10T02:45:21.966Z,14.77
2022-08-10T02:46:29.618Z,14.81
2022-08-10T02:49:02.592Z,14.88
2022-08-10T02:52:07.929Z,14.94
2022-08-10T02:54:33.801Z,14.99
2022-08-10T02:57:09.572Z,15.07
2022-08-10T02:59:45.715Z,15.13
2022-08-10T03:02:16.442Z,15.19
2022-08-10T03:04:57.111Z,15.24
2022-08-10T03:07:43.671Z,15.30
2022-08-10T03:10:20.298Z,15.37
2022-08-10T03:12:55.259Z,15.44
2022-08-10T03:15:23.753Z,15.52
2022-08-10T03:17:57.048Z,15.60
2022-08-10T03:20:38.400Z,15.69
2022-08-10T03:23:12.097Z,15.84
2022-08-10T03:25:39.542Z,16.31
2022-08-10T03:28:07.314Z,16.67
2022-08-10T03:30:35.208Z,16.76
2022-08-10T03:33:06.472Z,16.77
2022-08-10T03:35:34.081Z,16.76
2022-08-10T03:38:01.323Z,16.75
2022-08-10T03:40:44.967Z,16.76
2022-08-10T03:43:17.775Z,16.77
2022-08-10T03:45:55.725Z,16.77
2022-08-10T03:48:44.679Z,16.81
2022-08-10T03:51:13.491Z,16.81
2022-08-10T03:54:03.817Z,16.86
2022-08-10T03:56:31.848Z,17.00
2022-08-10T03:58:59.943Z,17.23
2022-08-10T04:02:46.226Z,17.62
2022-08-10T04:04:19.294Z,18.40
2022-08-10T04:06:51.546Z,19.13
2022-08-10T04:09:22.470Z,19.77
2022-08-10T04:11:49.218Z,20.22
2022-08-10T04:14:47.118Z,20.35
2022-08-10T04:17:02.779Z,20.31
2022-08-10T04:19:34.667Z,20.20
2022-08-10T04:22:10.330Z,20.11
2022-08-10T04:24:39.671Z,20.02
2022-08-10T04:27:06.924Z,19.96
2022-08-10T04:29:34.086Z,19.91
2022-08-10T04:32:03.786Z,19.87
2022-08-10T04:34:34.193Z,19.85
2022-08-10T04:37:08.759Z,19.83
2022-08-10T04:39:36.482Z,19.86
2022-08-10T04:42:04.257Z,19.91
2022-08-10T04:44:33.269Z,20.01
2022-08-10T04:47:00.084Z,20.17
2022-08-10T04:49:55.727Z,20.36
2022-08-10T04:52:14.554Z,20.59
2022-08-10T04:54:41.777Z,20.82
2022-08-10T04:57:08.987Z,21.10
2022-08-10T04:59:36.098Z,21.20
2022-08-10T05:02:28.076Z,21.20
2022-08-10T05:04:49.989Z,21.11
2022-08-10T05:07:18.593Z,21.07
2022-08-10T05:10:02.190Z,21.03
2022-08-10T05:12:38.327Z,21.02
2022-08-10T05:15:12.725Z,21.10
2022-08-10T05:17:41.190Z,21.22
2022-08-10T05:20:28.052Z,21.37
2022-08-10T05:22:54.816Z,21.62
2022-08-10T05:25:21.819Z,22.01
2022-08-10T05:27:48.869Z,22.39
2022-08-10T05:30:21.844Z,22.69
2022-08-10T05:32:56.253Z,22.91
2022-08-10T05:35:28.113Z,23.04
2022-08-10T05:38:13.346Z,23.13
2022-08-10T05:40:46.571Z,23.40
2022-08-10T05:43:18.262Z,23.53
2022-08-10T05:46:17.163Z,23.49
2022-08-10T05:48:54.365Z,23.40
2022-08-10T05:51:20.818Z,23.34
2022-08-10T05:54:01.791Z,23.34
2022-08-10T05:56:57.034Z,23.38
2022-08-10T06:00:33.269Z,23.34
2022-08-10T06:02:32.957Z,23.26
2022-08-10T06:05:00.339Z,23.22
2022-08-10T06:07:30.056Z,23.18
2022-08-10T06:09:59.293Z,23.22
2022-08-10T06:12:31.005Z,23.25
2022-08-10T06:15:05.425Z,23.31
2022-08-10T06:17:38.454Z,23.41
2022-08-10T06:20:05.985Z,23.43
2022-08-10T06:22:33.948Z,23.47
2022-08-10T06:25:32.340Z,23.47
2022-08-10T06:27:50.821Z,23.47
2022-08-10T06:30:20.851Z,23.57
2022-08-10T06:32:52.642Z,23.67
2022-08-10T06:35:20.783Z,23.75
2022-08-10T06:37:51.349Z,23.89
2022-08-10T06:40:20.062Z,24.07
2022-08-10T06:42:49.194Z,24.27
2022-08-10T06:45:20.179Z,24.53
2022-08-10T06:47:51.418Z,24.76
2022-08-10T06:50:45.025Z,24.86
2022-08-10T06:53:18.228Z,25.02
2022-08-10T06:55:56.479Z,25.02
2022-08-10T06:58:36.328Z,25.13
2022-08-10T07:01:08.847Z,25.19
2022-08-10T07:03:42.975Z,25.26
2022-08-10T07:06:14.013Z,25.35
2022-08-10T07:08:42.086Z,25.44
2022-08-10T07:11:11.966Z,25.57
2022-08-10T07:14:16.401Z,25.71
2022-08-10T07:16:28.881Z,25.76
2022-08-10T07:18:58.815Z,25.71
2022-08-10T07:21:28.179Z,25.66
2022-08-10T07:24:00.674Z,25.55
2022-08-10T07:26:30.573Z,25.36
2022-08-10T07:28:59.981Z,25.30
2022-08-10T07:31:55.528Z,25.25
2022-08-10T07:34:28.762Z,25.04
2022-08-10T07:37:01.577Z,24.58
2022-08-10T07:40:02.645Z,24.65
2022-08-10T07:42:25.991Z,24.75
2022-08-10T07:44:53.182Z,24.63
2022-08-10T07:47:53.140Z,24.61
2022-08-10T07:50:17.031Z,24.16
2022-08-10T07:52:46.095Z,24.21
2022-08-10T07:55:16.850Z,23.89
2022-08-10T07:57:46.718Z,23.60
2022-08-10T08:00:14.652Z,23.97
2022-08-10T08:02:48.345Z,23.63
2022-08-10T08:05:55.089Z,23.59
2022-08-10T08:08:05.464Z,23.79
2022-08-10T08:10:33.811Z,23.59
2022-08-10T08:13:02.611Z,23.52
2022-08-10T08:16:16.775Z,23.47
2022-08-10T08:18:25.233Z,23.60
2022-08-10T08:20:54.443Z,23.47
2022-08-10T08:24:08.088Z,23.59
2022-08-10T08:26:15.531Z,23.54
2022-08-10T08:28:45.724Z,23.72
2022-08-10T08:31:14.482Z,23.73
2022-08-10T08:33:44.416Z,23.63
2022-08-10T08:36:14.373Z,23.50
2022-08-10T08:38:42.679Z,23.81
2022-08-10T08:41:37.076Z,24.14
2022-08-10T08:44:15.694Z,24.31
2022-08-10T08:47:01.139Z,24.80
2022-08-10T08:50:09.208Z,25.31
2022-08-10T08:52:59.344Z,25.52
2022-08-10T08:56:04.115Z,25.50
2022-08-10T08:58:29.781Z,25.91
2022-08-10T09:01:19.738Z,26.11
2022-08-10T09:04:19.769Z,26.04
2022-08-10T09:08:01.263Z,26.47
2022-08-10T09:10:37.646Z,26.70
2022-08-10T09:13:26.692Z,26.44
2022-08-10T09:16:28.869Z,26.80
2022-08-10T09:19:19.563Z,26.80
2022-08-10T09:22:21.914Z,26.98
2022-08-10T09:25:08.795Z,26.87
2022-08-10T09:27:49.511Z,26.67
2022-08-10T09:30:28.342Z,26.82
2022-08-10T09:36:19.791Z,26.64
2022-08-10T09:36:21.929Z,26.61
2022-08-10T09:40:56.285Z,26.86
2022-08-10T09:42:39.586Z,26.67
2022-08-10T09:45:20.363Z,27.20
2022-08-10T09:48:09.711Z,27.88
2022-08-10T09:51:28.338Z,28.93
2022-08-10T09:53:51.209Z,30.19
2022-08-10T09:56:43.964Z,30.72
2022-08-10T10:00:00.540Z,29.81
2022-08-10T10:02:31.709Z,29.45
2022-08-10T10:05:04.624Z,29.62
2022-08-10T10:07:31.584Z,29.90
2022-08-10T10:10:10.791Z,29.60
2022-08-10T10:12:55.702Z,29.23
2022-08-10T10:15:50.962Z,28.96
2022-08-10T10:18:47.215Z,28.38
2022-08-10T10:21:56.098Z,28.07
2022-08-10T10:24:45.701Z,27.69
2022-08-10T10:28:02.749Z,26.99
2022-08-10T10:30:37.742Z,26.97
2022-08-10T10:33:14.731Z,26.96
2022-08-10T10:35:52.226Z,26.61
2022-08-10T10:38:26.860Z,26.28
2022-08-10T10:41:30.371Z,25.69
2022-08-10T10:44:42.147Z,25.53
2022-08-10T10:47:19.756Z,25.73
2022-08-10T10:50:11.390Z,25.77
2022-08-10T10:53:13.907Z,25.55
2022-08-10T10:56:15.155Z,25.40
2022-08-10T10:59:01.579Z,25.03
2022-08-10T11:01:54.177Z,24.86
2022-08-10T11:04:24.153Z,25.06
2022-08-10T11:07:13.082Z,25.16
2022-08-10T11:10:09.518Z,24.59
2022-08-10T11:12:50.976Z,24.54
2022-08-10T11:15:33.099Z,24.77
2022-08-10T11:18:13.973Z,24.98
2022-08-10T11:20:48.349Z,25.12
2022-08-10T11:23:44.774Z,25.30
2022-08-10T11:26:41.807Z,25.51
2022-08-10T11:29:20.839Z,25.38
2022-08-10T11:32:20.686Z,25.60
2022-08-10T11:35:11.128Z,25.57
2022-08-10T11:38:31.367Z,25.71
2022-08-10T11:40:58.074Z,25.58
2022-08-10T11:43:49.433Z,25.85
2022-08-10T11:46:29.100Z,26.07
2022-08-10T11:49:31.019Z,26.34
2022-08-10T11:52:03.506Z,26.54
2022-08-10T11:54:37.397Z,26.70
2022-08-10T11:57:04.350Z,26.84
2022-08-10T11:59:58.523Z,27.01
2022-08-10T12:02:33.013Z,27.21
2022-08-10T12:05:48.295Z,27.39
2022-08-10T12:10:06.816Z,27.63
2022-08-10T12:10:59.882Z,28.01
2022-08-10T12:13:31.366Z,28.44
2022-08-10T12:16:06.322Z,29.34
2022-08-10T12:18:46.105Z,29.69
2022-08-10T12:21:21.649Z,30.05
2022-08-10T12:24:03.151Z,29.72
2022-08-10T12:26:42.923Z,29.48
2022-08-10T12:29:37.099Z,29.17
2022-08-10T12:32:29.269Z,28.59
2022-08-10T12:35:34.296Z,28.80
2022-08-10T12:38:16.682Z,28.62
2022-08-10T12:40:45.986Z,28.85
2022-08-10T12:43:13.026Z,29.03
2022-08-10T12:46:12.892Z,28.55
2022-08-10T12:48:51.068Z,28.69
2022-08-10T12:51:23.280Z,28.99
2022-08-10T12:53:52.790Z,29.15
2022-08-10T12:56:29.232Z,29.22
2022-08-10T12:59:01.475Z,29.53
2022-08-10T13:02:09.727Z,29.95
2022-08-10T13:04:29.723Z,30.04
2022-08-10T13:07:00.306Z,30.06
2022-08-10T13:09:28.866Z,29.93
2022-08-10T13:12:44.677Z,29.70
2022-08-10T13:15:25.381Z,30.07
2022-08-10T13:17:56.308Z,30.04
2022-08-10T13:20:28.370Z,30.13
2022-08-10T13:22:59.162Z,30.22
2022-08-10T13:25:31.929Z,30.31
2022-08-10T13:28:35.693Z,30.36
2022-08-10T13:30:51.252Z,30.37
2022-08-10T13:34:40.506Z,30.48
2022-08-10T13:36:07.078Z,30.55
2022-08-10T13:38:34.947Z,30.56
2022-08-10T13:41:02.423Z,30.57
2022-08-10T13:43:29.181Z,30.52
2022-08-10T13:45:58.136Z,30.58
2022-08-10T13:48:26.844Z,30.65
2022-08-10T13:50:58.775Z,30.98
2022-08-10T13:53:31.762Z,31.57
2022-08-10T13:56:01.374Z,32.03
2022-08-10T13:58:34.589Z,32.51
2022-08-10T14:01:10.199Z,32.85
2022-08-10T14:03:40.139Z,32.80
2022-08-10T14:06:12.889Z,32.67
2022-08-10T14:08:48.018Z,32.41
2022-08-10T14:11:18.378Z,32.04
2022-08-10T14:14:01.733Z,31.57
2022-08-10T14:16:29.899Z,31.11
2022-08-10T14:19:00.595Z,30.61
2022-08-10T14:21:28.221Z,30.16
2022-08-10T14:23:55.498Z,29.75
2022-08-10T14:26:26.311Z,29.43
2022-08-10T14:28:57.256Z,29.20
2022-08-10T14:31:31.181Z,29.07
2022-08-10T14:34:01.120Z,28.99
2022-08-10T14:36:37.118Z,28.96
2022-08-10T14:39:07.794Z,29.17
2022-08-10T14:42:03.156Z,29.35
2022-08-10T14:44:29.935Z,29.71
2022-08-10T14:47:02.105Z,30.07
2022-08-10T14:49:57.600Z,30.36
2022-08-10T14:52:26.967Z,30.58
2022-08-10T14:54:56.651Z,30.72
2022-08-10T14:57:24.312Z,30.75
2022-08-10T15:00:28.508Z,30.58
2022-08-10T15:03:02.053Z,30.04
2022-08-10T15:05:39.903Z,29.51
2022-08-10T15:08:10.330Z,28.82
2022-08-10T15:10:38.856Z,28.26
2022-08-10T15:13:34.497Z,27.60
2022-08-10T15:16:12.539Z,27.42
2022-08-10T15:18:57.835Z,27.07
2022-08-10T15:21:35.779Z,26.93
2022-08-10T15:24:39.464Z,26.73
2022-08-10T15:27:09.354Z,26.45
2022-08-10T15:29:57.021Z,26.52
2022-08-10T15:32:52.372Z,26.17
2022-08-10T15:35:40.068Z,26.14
2022-08-10T15:38:08.355Z,26.27
2022-08-10T15:40:42.535Z,26.35
2022-08-10T15:43:25.014Z,26.40
2022-08-10T15:46:03.104Z,26.48
2022-08-10T15:48:39.574Z,26.49
2022-08-10T15:51:17.482Z,26.49
2022-08-10T15:53:51.264Z,26.46
2022-08-10T15:56:32.897Z,26.40
2022-08-10T15:59:10.917Z,26.32
2022-08-10T16:02:03.917Z,26.29
2022-08-10T16:04:50.857Z,26.23
2022-08-10T16:07:45.417Z,26.12
2022-08-10T16:10:25.679Z,26.01
2022-08-10T16:14:00.365Z,25.92
2022-08-10T16:16:04.068Z,25.75
2022-08-10T16:18:34.719Z,25.60
2022-08-10T16:21:05.411Z,25.47
2022-08-10T16:23:41.129Z,25.32
2022-08-10T16:26:15.212Z,25.16
2022-08-10T16:28:56.249Z,24.99
2022-08-10T16:31:25.778Z,24.81
2022-08-10T16:33:55.366Z,24.63
2022-08-10T16:36:43.018Z,24.48
2022-08-10T16:39:18.113Z,24.31
2022-08-10T16:42:04.390Z,24.17
2022-08-10T16:44:51.859Z,24.05
2022-08-10T16:47:27.180Z,23.95
2022-08-10T16:50:00.447Z,23.86
2022-08-10T16:52:30.203Z,23.80
2022-08-10T16:55:08.480Z,23.74
2022-08-10T16:57:53.771Z,23.66
2022-08-10T17:00:22.787Z,23.59
2022-08-10T17:02:53.719Z,23.49
2022-08-10T17:06:03.576Z,23.41
2022-08-10T17:08:14.842Z,23.27
2022-08-10T17:10:42.594Z,23.16
2022-08-10T17:13:11.852Z,23.03
2022-08-10T17:15:47.502Z,22.89
2022-08-10T17:18:27.620Z,22.75
2022-08-10T17:21:00.178Z,22.58
2022-08-10T17:23:32.880Z,22.42
2022-08-10T17:26:02.985Z,22.23
2022-08-10T17:28:35.413Z,22.08
2022-08-10T17:31:53.245Z,21.90
2022-08-10T17:34:14.876Z,21.68
2022-08-10T17:36:44.962Z,21.53
2022-08-10T17:39:15.127Z,21.34
2022-08-10T17:41:47.942Z,21.19
2022-08-10T17:44:17.246Z,21.02
2022-08-10T17:46:45.606Z,20.87
2022-08-10T17:49:16.419Z,20.74
2022-08-10T17:51:53.695Z,20.63
2022-08-10T17:54:40.553Z,20.50
2022-08-10T17:57:18.754Z,20.39
2022-08-10T17:59:48.072Z,20.30
2022-08-10T18:02:23.237Z,20.21
2022-08-10T18:04:56.561Z,20.11
2022-08-10T18:07:36.164Z,20.02
2022-08-10T18:10:05.746Z,19.92
2022-08-10T18:12:45.824Z,19.81
2022-08-10T18:15:17.884Z,19.68
2022-08-10T18:17:55.490Z,19.55
2022-08-10T18:20:28.141Z,19.44
2022-08-10T18:22:57.376Z,19.35
2022-08-10T18:25:30.477Z,19.29
2022-08-10T18:28:04.413Z,19.19
2022-08-10T18:30:36.264Z,19.07
2022-08-10T18:33:05.003Z,18.99
2022-08-10T18:35:34.510Z,18.91
2022-08-10T18:38:03.801Z,18.83
2022-08-10T18:40:35.530Z,18.74
2022-08-10T18:44:04.326Z,18.67
2022-08-10T18:45:57.160Z,18.59
2022-08-10T18:48:33.265Z,18.53
2022-08-10T18:51:06.087Z,18.46
2022-08-10T18:53:35.485Z,18.40
2022-08-10T18:56:13.503Z,18.36
2022-08-10T18:58:42.375Z,18.32
2022-08-10T19:01:12.447Z,18.29
2022-08-10T19:04:12.653Z,18.29
2022-08-10T19:07:09.190Z,18.28
2022-08-10T19:09:51.236Z,18.25
2022-08-10T19:12:41.617Z,18.22
2022-08-10T19:15:16.397Z,18.15
2022-08-10T19:18:07.370Z,18.11
2022-08-10T19:21:13.485Z,18.02
2022-08-10T19:24:17.968Z,17.96
2022-08-10T19:26:54.261Z,17.92
2022-08-10T19:30:09.434Z,17.88
2022-08-10T19:32:46.358Z,17.80
2022-08-10T19:35:32.671Z,17.74
2022-08-10T19:38:16.639Z,17.68
2022-08-10T19:40:53.581Z,17.61
2022-08-10T19:44:00.170Z,17.55
2022-08-10T19:46:39.478Z,17.48
2022-08-10T19:49:18.888Z,17.43
2022-08-10T19:51:55.693Z,17.40
2022-08-10T19:54:34.142Z,17.36
2022-08-10T19:57:09.772Z,17.32
2022-08-10T20:00:18.531Z,17.28
2022-08-10T20:03:12.441Z,17.23
2022-08-10T20:06:13.167Z,17.18
2022-08-10T20:08:42.680Z,17.15
2022-08-10T20:11:45.971Z,17.11
2022-08-10T20:14:12.475Z,17.14
2022-08-10T20:16:55.962Z,17.12
2022-08-10T20:19:53.977Z,17.09
2022-08-10T20:22:19.308Z,17.03
2022-08-10T20:25:15.575Z,16.98
2022-08-10T20:28:06.354Z,16.91
2022-08-10T20:30:36.294Z,16.83
2022-08-10T20:33:15.156Z,16.73
2022-08-10T20:36:24.420Z,16.67
2022-08-10T20:38:51.373Z,16.61
2022-08-10T20:41:44.517Z,16.61
2022-08-10T20:44:50.754Z,16.59
2022-08-10T20:47:36.944Z,16.56
2022-08-10T20:50:28.293Z,16.57
2022-08-10T20:52:59.419Z,16.60
2022-08-10T20:55:29.568Z,16.62
2022-08-10T20:58:42.329Z,16.64
2022-08-10T21:01:18.319Z,16.66
2022-08-10T21:04:06.119Z,16.69
2022-08-10T21:06:51.933Z,16.72
2022-08-10T21:09:55.321Z,16.75
2022-08-10T21:12:40.741Z,16.75
2022-08-10T21:18:57.660Z,16.81
2022-08-10T21:22:08.595Z,16.86
2022-08-10T21:27:57.695Z,16.95
2022-08-10T21:30:53.644Z,17.02
2022-08-10T21:33:32.804Z,17.04
2022-08-10T21:36:22.723Z,17.08
2022-08-10T21:39:02.569Z,17.12
2022-08-10T21:42:07.244Z,17.15
2022-08-10T21:45:18.850Z,17.14
2022-08-10T21:48:38.141Z,17.16
2022-08-10T21:52:01.797Z,17.13
2022-08-10T21:55:05.291Z,17.09
2022-08-10T21:58:35.952Z,17.10
2022-08-10T22:01:39.125Z,17.10
2022-08-10T22:04:25.861Z,17.12
2022-08-10T22:07:13.538Z,17.12
2022-08-10T22:10:05.114Z,17.15
2022-08-10T22:13:03.787Z,17.16
2022-08-10T22:16:10.231Z,17.16
2022-08-10T22:19:02.572Z,17.14
2022-08-10T22:21:48.532Z,17.11
2022-08-10T22:25:17.091Z,17.06
2022-08-10T22:28:03.383Z,16.99
2022-08-10T22:31:24.350Z,16.93
2022-08-10T22:31:24.651Z,16.91
2022-08-10T22:31:29.176Z,16.75
2022-08-10T22:34:01.985Z,16.87
2022-08-10T22:37:15.419Z,16.81
2022-08-10T22:40:23.432Z,16.73
2022-08-10T22:43:12.984Z,16.69
2022-08-10T22:46:07.604Z,16.69
2022-08-10T22:49:01.293Z,16.66
2022-08-10T22:51:51.051Z,16.63
2022-08-10T22:54:52.186Z,16.64
2022-08-10T22:57:38.178Z,16.65
2022-08-10T23:00:20.063Z,16.66
2022-08-10T23:03:07.462Z,16.70
2022-08-10T23:05:42.219Z,16.75
2022-08-10T23:08:29.961Z,16.81
2022-08-10T23:11:03.926Z,16.85
2022-08-10T23:13:39.248Z,16.88
2022-08-10T23:16:33.625Z,16.92
2022-08-10T23:19:11.081Z,16.96
2022-08-10T23:22:05.654Z,17.01
2022-08-10T23:25:09.622Z,17.03
2022-08-10T23:27:41.803Z,17.07
2022-08-10T23:30:17.493Z,17.12
2022-08-10T23:32:48.929Z,17.16
2022-08-10T23:36:31.269Z,17.21
2022-08-10T23:38:09.365Z,17.25
2022-08-10T23:40:36.966Z,17.29
2022-08-10T23:43:05.527Z,17.33
2022-08-10T23:45:52.282Z,17.37
2022-08-10T23:48:26.016Z,17.36
2022-08-10T23:50:58.470Z,17.38
2022-08-10T23:53:33.387Z,17.37
2022-08-10T23:56:03.601Z,17.38
2022-08-10T23:58:49.674Z,17.37
